Time;durP1;ratioP1;P1;durP2;ratioP2;P2;SDS_P1;SDS_P2;PMS_P1;PMS_P2;Temp;Humidity;BMP_temperature;BMP_pressure;BME280_temperature;BME280_humidity;BME280_pressure;Samples;Min_cycle;Max_cycle;Signal;HPM_P1;HPM_P2
2021/04/21 00:00:18;;;;;;;30.60;28.40;;;7.60;81.90;;;;;;5093834;28;20307;-77
2021/04/21 00:02:49;;;;;;;33.05;30.42;;;7.60;81.90;;;;;;5093850;28;20238;-77
2021/04/21 00:05:17;;;;;;;30.90;28.73;;;7.50;82.00;;;;;;5093862;28;20208;-77
2021/04/21 00:07:44;;;;;;;30.55;28.35;;;7.40;82.40;;;;;;5093270;28;20290;-77
2021/04/21 00:10:13;;;;;;;32.28;29.77;;;7.30;82.90;;;;;;5093581;28;20306;-77
2021/04/21 00:12:40;;;;;;;32.28;29.67;;;7.30;83.00;;;;;;5093646;28;20195;-77
2021/04/21 00:15:11;;;;;;;32.30;30.00;;;7.20;83.30;;;;;;5093630;28;20196;-77
2021/04/21 00:17:40;;;;;;;33.47;30.92;;;7.20;83.60;;;;;;5093209;28;20223;-77
2021/04/21 00:20:08;;;;;;;32.28;29.67;;;7.10;83.70;;;;;;5093005;28;20223;-77
2021/04/21 00:22:35;;;;;;;31.05;28.65;;;7.10;83.80;;;;;;5093437;28;20280;-77
2021/04/21 00:25:04;;;;;;;32.20;29.67;;;7.00;84.20;;;;;;5093245;28;20204;-77
2021/04/21 00:27:31;;;;;;;31.13;28.73;;;7.00;87.20;;;;;;5092933;28;20203;-77
2021/04/21 00:30:02;;;;;;;30.77;28.45;;;7.00;86.90;;;;;;5093511;28;20217;-77
2021/04/21 00:32:30;;;;;;;32.25;29.50;;;7.00;85.20;;;;;;5093408;28;20661;-77
2021/04/21 00:34:59;;;;;;;31.42;29.02;;;7.00;85.20;;;;;;5093175;28;20542;-77
2021/04/21 00:37:28;;;;;;;33.92;30.98;;;7.00;84.90;;;;;;5092744;28;20287;-77
2021/04/21 00:39:56;;;;;;;31.63;29.38;;;7.00;84.80;;;;;;5093234;28;20302;-77
2021/04/21 00:42:29;;;;;;;32.00;29.55;;;7.00;84.60;;;;;;5093237;28;20202;-77
2021/04/21 00:45:01;;;;;;;33.15;30.55;;;7.00;84.40;;;;;;5093065;28;20233;-76
2021/04/21 00:47:38;;;;;;;32.95;30.52;;;7.00;84.10;;;;;;5091881;28;20260;-76
2021/04/21 00:50:10;;;;;;;31.52;29.30;;;7.00;84.10;;;;;;5093108;28;20222;-76
2021/04/21 00:52:46;;;;;;;33.90;31.33;;;7.10;83.80;;;;;;5093037;28;20228;-77
2021/04/21 00:55:18;;;;;;;33.28;30.77;;;7.00;83.70;;;;;;5092961;28;20629;-77
2021/04/21 00:57:54;;;;;;;32.47;29.92;;;7.00;83.90;;;;;;5092424;28;20206;-77
2021/04/21 01:00:24;;;;;;;33.60;31.08;;;6.90;84.00;;;;;;5092818;28;20255;-77
2021/04/21 01:02:55;;;;;;;32.60;30.08;;;6.90;84.20;;;;;;5092885;28;20799;-78
2021/04/21 01:05:25;;;;;;;32.38;29.83;;;6.80;84.30;;;;;;5092617;28;20199;-77
2021/04/21 01:07:55;;;;;;;33.05;30.27;;;6.80;84.70;;;;;;5092782;28;20199;-77
2021/04/21 01:10:24;;;;;;;33.00;30.40;;;6.80;84.80;;;;;;5092740;28;20246;-78
2021/04/21 01:12:51;;;;;;;33.70;31.00;;;6.80;84.60;;;;;;5092689;28;20287;-77
2021/04/21 01:15:20;;;;;;;30.27;28.08;;;6.70;84.40;;;;;;5092551;28;20206;-76
2021/04/21 01:17:51;;;;;;;32.05;29.55;;;6.70;84.40;;;;;;5092353;28;20227;-77
2021/04/21 01:20:27;;;;;;;32.15;29.20;;;6.70;84.20;;;;;;5092229;28;20242;-77
2021/04/21 01:23:14;;;;;;;33.10;30.50;;;6.70;84.00;;;;;;5092634;28;20202;-77
2021/04/21 01:25:59;;;;;;;31.98;29.60;;;6.80;83.80;;;;;;5092862;28;20293;-76
2021/04/21 01:28:29;;;;;;;32.28;29.77;;;6.80;83.60;;;;;;5092767;28;20203;-77
2021/04/21 01:30:56;;;;;;;33.25;30.65;;;6.70;83.60;;;;;;5092665;28;20364;-76
2021/04/21 01:33:25;;;;;;;31.50;29.10;;;6.70;83.60;;;;;;5092450;28;20199;-76
2021/04/21 01:35:56;;;;;;;32.40;29.90;;;6.80;83.30;;;;;;5096404;28;20275;-77
2021/04/21 01:38:25;;;;;;;31.00;28.45;;;6.60;84.50;;;;;;5094665;28;20201;-76
2021/04/21 01:40:53;;;;;;;32.75;30.10;;;6.50;84.80;;;;;;5092305;28;20230;-76
2021/04/21 01:43:22;;;;;;;32.58;29.85;;;6.40;87.20;;;;;;5092215;28;20294;-76
2021/04/21 01:45:56;;;;;;;32.65;30.25;;;6.40;86.80;;;;;;5091705;28;20196;-76
2021/04/21 01:48:25;;;;;;;32.78;29.88;;;6.40;85.90;;;;;;5092195;28;20297;-78
2021/04/21 01:50:53;;;;;;;33.30;30.40;;;6.40;85.60;;;;;;5092136;28;20294;-77
2021/04/21 01:53:34;;;;;;;31.08;28.77;;;6.40;85.30;;;;;;5092101;28;20199;-77
2021/04/21 01:56:06;;;;;;;31.30;28.75;;;6.30;86.10;;;;;;5091683;28;20256;-77
2021/04/21 01:58:57;;;;;;;32.30;29.80;;;6.30;85.70;;;;;;5091987;28;20230;-77
2021/04/21 02:01:36;;;;;;;31.95;29.60;;;6.20;85.90;;;;;;5095743;28;20306;-76
2021/04/21 02:04:10;;;;;;;32.42;29.95;;;6.20;85.80;;;;;;5096376;28;20206;-76
2021/04/21 02:06:51;;;;;;;33.88;31.27;;;6.20;86.00;;;;;;5095677;28;20199;-76
2021/04/21 02:09:41;;;;;;;31.13;28.73;;;6.20;86.10;;;;;;5096066;28;20195;-76
2021/04/21 02:12:17;;;;;;;33.13;30.42;;;6.20;85.70;;;;;;5096087;28;20196;-76
2021/04/21 02:14:55;;;;;;;31.85;29.55;;;6.20;85.30;;;;;;5096268;28;20626;-76
2021/04/21 02:17:35;;;;;;;32.53;29.92;;;6.20;85.30;;;;;;5095586;28;20191;-76
2021/04/21 02:20:07;;;;;;;33.38;30.55;;;6.20;85.40;;;;;;5095452;28;20298;-76
2021/04/21 02:22:38;;;;;;;32.95;30.55;;;6.20;85.50;;;;;;5096026;28;20195;-76
2021/04/21 02:25:18;;;;;;;32.45;29.65;;;6.10;85.70;;;;;;5095817;28;20199;-76
2021/04/21 02:27:54;;;;;;;34.58;31.67;;;6.10;85.90;;;;;;5095253;28;20202;-76
2021/04/21 02:30:29;;;;;;;30.52;28.05;;;6.00;92.20;;;;;;5095783;28;20254;-77
2021/04/21 02:33:10;;;;;;;32.40;29.60;;;6.00;91.60;;;;;;5095753;28;20194;-76
2021/04/21 02:35:43;;;;;;;32.40;29.75;;;6.00;90.40;;;;;;5095340;28;20620;-76
2021/04/21 02:38:18;;;;;;;33.47;30.67;;;6.00;89.10;;;;;;5095526;28;20697;-77
2021/04/21 02:41:06;;;;;;;33.35;30.45;;;6.00;88.60;;;;;;5095270;28;20680;-77
2021/04/21 02:43:55;;;;;;;33.65;30.95;;;6.00;87.90;;;;;;5095477;28;20608;-77
2021/04/21 02:46:28;;;;;;;33.38;30.58;;;6.00;87.20;;;;;;5092353;28;20290;-77
2021/04/21 02:49:12;;;;;;;33.72;31.13;;;6.00;86.80;;;;;;5095401;28;20282;-77
2021/04/21 02:51:46;;;;;;;36.28;33.20;;;6.00;86.50;;;;;;5095131;28;20298;-77
2021/04/21 02:54:19;;;;;;;31.98;29.45;;;6.10;86.20;;;;;;5095499;28;20251;-77
2021/04/21 02:56:54;;;;;;;34.28;31.40;;;6.00;85.90;;;;;;5094700;28;20286;-76
2021/04/21 02:59:31;;;;;;;33.95;31.05;;;5.90;86.20;;;;;;5095283;28;20199;-76
2021/04/21 03:02:05;;;;;;;36.50;33.58;;;5.80;86.70;;;;;;5095235;28;20226;-76
2021/04/21 03:04:39;;;;;;;32.70;30.10;;;5.80;86.70;;;;;;5095126;28;20204;-76
2021/04/21 03:07:14;;;;;;;32.63;29.90;;;5.80;86.60;;;;;;5094667;28;20255;-76
2021/04/21 03:09:47;;;;;;;34.15;31.25;;;5.70;86.60;;;;;;5095024;28;20205;-76
2021/04/21 03:12:16;;;;;;;35.42;32.83;;;5.70;86.50;;;;;;5094395;28;20221;-75
2021/04/21 03:14:47;;;;;;;34.50;31.70;;;5.70;86.40;;;;;;5095121;28;20242;-76
2021/04/21 03:17:16;;;;;;;36.95;33.95;;;5.70;86.70;;;;;;5094358;28;20283;-76
2021/04/21 03:19:48;;;;;;;35.97;33.05;;;5.60;87.30;;;;;;5094312;28;20199;-77
2021/04/21 03:22:16;;;;;;;35.03;32.00;;;5.50;87.50;;;;;;5094751;28;20306;-77
2021/04/21 03:24:45;;;;;;;37.45;34.35;;;5.50;87.90;;;;;;5094639;28;20323;-76
2021/04/21 03:27:13;;;;;;;34.83;31.95;;;5.50;87.50;;;;;;5094291;28;20299;-76
2021/04/21 03:29:43;;;;;;;35.58;32.47;;;5.50;87.30;;;;;;5094412;28;20199;-78
2021/04/21 03:32:13;;;;;;;38.05;34.80;;;5.50;86.90;;;;;;5094413;28;20198;-76
2021/04/21 03:34:43;;;;;;;37.58;34.42;;;5.50;86.80;;;;;;5094689;28;20201;-76
2021/04/21 03:37:27;;;;;;;34.53;31.52;;;5.50;86.80;;;;;;5094150;28;20248;-77
2021/04/21 03:39:55;;;;;;;35.17;32.17;;;5.40;87.00;;;;;;5094345;28;20307;-77
2021/04/21 03:42:22;;;;;;;36.20;33.00;;;5.40;87.20;;;;;;5094160;28;20716;-77
2021/04/21 03:44:48;;;;;;;36.03;32.70;;;5.40;87.20;;;;;;5094316;28;20745;-77
2021/04/21 03:47:15;;;;;;;37.42;34.22;;;5.40;87.30;;;;;;5093542;28;20207;-77
2021/04/21 03:49:43;;;;;;;35.22;31.95;;;5.40;87.50;;;;;;5094358;28;20282;-77
2021/04/21 03:52:14;;;;;;;38.15;34.75;;;5.30;87.80;;;;;;5094039;28;20311;-77
2021/04/21 03:54:41;;;;;;;37.33;33.78;;;5.30;88.00;;;;;;5094321;28;20279;-76
2021/04/21 03:57:11;;;;;;;36.90;33.90;;;5.20;88.00;;;;;;5093330;28;20282;-78
2021/04/21 03:59:39;;;;;;;36.72;33.30;;;5.30;87.90;;;;;;5094024;28;20203;-77
2021/04/21 04:02:08;;;;;;;39.65;36.05;;;5.30;87.70;;;;;;5093725;28;20219;-77
2021/04/21 04:04:39;;;;;;;36.83;33.72;;;5.20;88.00;;;;;;5093999;28;20203;-76
2021/04/21 04:07:09;;;;;;;37.78;34.10;;;5.20;88.60;;;;;;5093436;28;20195;-77
2021/04/21 04:09:38;;;;;;;38.75;35.33;;;5.20;88.70;;;;;;5093745;28;20195;-77
2021/04/21 04:12:06;;;;;;;39.75;36.40;;;5.20;88.50;;;;;;5093591;28;20286;-76
2021/04/21 04:14:34;;;;;;;39.00;35.65;;;5.30;88.10;;;;;;5093929;28;20263;-76
2021/04/21 04:17:03;;;;;;;40.50;36.70;;;5.40;87.80;;;;;;5093155;28;20766;-76
2021/04/21 04:19:33;;;;;;;39.50;35.83;;;5.40;87.60;;;;;;5093225;28;20235;-76
2021/04/21 04:22:05;;;;;;;40.88;37.10;;;5.50;87.10;;;;;;5093011;28;20270;-77
2021/04/21 04:24:40;;;;;;;38.15;34.58;;;5.40;87.00;;;;;;5093136;28;20649;-77
2021/04/21 04:27:13;;;;;;;40.50;36.70;;;5.30;87.50;;;;;;5092990;28;20195;-77
2021/04/21 04:29:41;;;;;;;41.67;38.05;;;5.30;88.00;;;;;;5093383;28;20229;-77
2021/04/21 04:32:11;;;;;;;42.53;37.95;;;5.30;88.00;;;;;;5093486;28;20283;-77
2021/04/21 04:34:39;;;;;;;42.53;38.55;;;5.30;88.00;;;;;;5093200;28;20280;-77
2021/04/21 04:37:06;;;;;;;40.40;36.90;;;5.30;87.80;;;;;;5092747;28;20286;-77
2021/04/21 04:39:33;;;;;;;44.63;40.53;;;5.30;87.70;;;;;;5093147;28;20199;-77
2021/04/21 04:42:00;;;;;;;39.63;36.10;;;5.30;87.80;;;;;;5093174;28;20215;-82
2021/04/21 04:44:27;;;;;;;43.78;39.88;;;5.30;87.90;;;;;;5093194;28;20202;-77
2021/04/21 04:46:59;;;;;;;43.60;39.72;;;5.40;88.00;;;;;;5092387;28;20317;-77
2021/04/21 04:49:33;;;;;;;42.38;38.67;;;5.40;87.80;;;;;;5093108;28;20556;-77
2021/04/21 04:52:03;;;;;;;39.40;35.92;;;5.40;87.80;;;;;;5093500;28;20187;-76
2021/04/21 04:54:29;;;;;;;39.05;35.95;;;5.50;87.40;;;;;;5093087;28;20199;-77
2021/04/21 04:56:56;;;;;;;39.63;35.95;;;5.60;86.90;;;;;;5092389;28;20286;-76
2021/04/21 04:59:27;;;;;;;43.58;39.55;;;5.70;86.50;;;;;;5093027;28;20578;-76
2021/04/21 05:01:58;;;;;;;42.83;38.88;;;5.70;86.30;;;;;;5092607;28;20251;-76
2021/04/21 05:04:32;;;;;;;42.97;38.83;;;5.80;86.00;;;;;;5092763;28;20322;-76
2021/04/21 05:07:03;;;;;;;39.33;35.95;;;5.90;85.90;;;;;;5092497;28;20281;-76
2021/04/21 05:09:32;;;;;;;42.72;39.13;;;5.90;85.70;;;;;;5092914;28;20278;-77
2021/04/21 05:12:01;;;;;;;39.83;36.05;;;5.90;85.60;;;;;;5092740;28;20781;-77
2021/04/21 05:14:32;;;;;;;42.08;38.25;;;5.90;85.50;;;;;;5092590;28;20209;-77
2021/04/21 05:17:48;;;;;;;44.22;39.70;;;6.00;85.60;;;;;;5092107;28;20606;-77
2021/04/21 05:20:48;;;;;;;41.45;37.28;;;6.00;85.40;;;;;;5092012;28;20242;-76
2021/04/21 05:23:53;;;;;;;42.65;38.63;;;6.20;85.50;;;;;;5092600;28;20278;-77
2021/04/21 05:26:59;;;;;;;42.85;38.92;;;6.20;85.50;;;;;;5091831;28;20537;-77
2021/04/21 05:30:03;;;;;;;40.53;36.70;;;6.30;85.70;;;;;;5092323;28;20264;-76
2021/04/21 05:33:06;;;;;;;41.53;37.90;;;6.30;87.30;;;;;;5017382;28;20202;-76
2021/04/21 05:36:07;;;;;;;41.33;37.33;;;6.60;86.10;;;;;;5091906;28;20322;-77
2021/04/21 05:39:16;;;;;;;41.13;37.55;;;6.70;85.20;;;;;;5066382;28;20281;-77
2021/04/21 05:42:53;;;;;;;41.88;38.08;;;6.90;84.80;;;;;;5027690;28;20710;-77
2021/04/21 05:45:47;;;;;;;41.83;37.88;;;7.10;84.50;;;;;;5029730;28;20704;-77
2021/04/21 05:48:46;;;;;;;43.83;39.65;;;7.30;83.80;;;;;;5029973;28;20260;-77
2021/04/21 05:51:41;;;;;;;42.50;38.53;;;7.50;83.30;;;;;;5049384;28;20214;-77
2021/04/21 05:54:45;;;;;;;43.95;39.65;;;7.70;84.10;;;;;;5092309;28;20199;-77
2021/04/21 05:57:48;;;;;;;42.28;36.85;;;7.80;86.80;;;;;;5091700;28;20199;-78
2021/04/21 06:01:19;;;;;;;42.85;38.53;;;7.90;91.80;;;;;;5078377;28;20305;-77
2021/04/21 06:03:48;;;;;;;41.67;37.67;;;8.00;86.90;;;;;;5092233;28;20225;-77
2021/04/21 06:06:14;;;;;;;41.92;38.17;;;8.20;84.70;;;;;;5091514;28;20282;-77
2021/04/21 06:08:41;;;;;;;41.78;37.70;;;8.30;82.90;;;;;;5092044;28;20286;-77
2021/04/21 06:11:17;;;;;;;44.45;40.05;;;8.50;81.40;;;;;;5091945;28;20256;-78
2021/04/21 06:13:44;;;;;;;44.00;40.35;;;8.60;80.80;;;;;;5092055;28;20278;-77
2021/04/21 06:16:12;;;;;;;46.80;42.50;;;8.70;80.20;;;;;;5091402;28;20195;-77
2021/04/21 06:18:40;;;;;;;45.42;41.38;;;8.80;79.30;;;;;;5091956;28;20206;-77
2021/04/21 06:21:16;;;;;;;45.20;41.22;;;9.00;78.80;;;;;;5091168;28;20582;-78
2021/04/21 06:23:42;;;;;;;45.13;41.40;;;9.10;78.40;;;;;;5092055;28;20226;-77
2021/04/21 06:26:09;;;;;;;45.17;41.35;;;9.20;77.60;;;;;;5091198;28;20197;-77
2021/04/21 06:28:36;;;;;;;46.67;42.08;;;9.40;77.50;;;;;;5092024;28;20746;-77
2021/04/21 06:31:06;;;;;;;45.63;41.58;;;9.50;76.90;;;;;;5091857;28;20776;-77
2021/04/21 06:33:33;;;;;;;50.95;46.88;;;9.70;76.60;;;;;;5091865;28;20199;-77
2021/04/21 06:36:01;;;;;;;44.58;40.45;;;9.80;75.90;;;;;;5091589;28;20252;-77
2021/04/21 06:38:29;;;;;;;46.38;41.88;;;9.90;75.30;;;;;;5092089;28;20276;-77
2021/04/21 06:40:55;;;;;;;44.58;40.55;;;10.00;75.40;;;;;;5092610;28;20222;-77
2021/04/21 06:43:26;;;;;;;53.30;48.97;;;10.10;74.90;;;;;;5092633;28;20661;-77
2021/04/21 06:45:53;;;;;;;48.90;44.58;;;10.20;74.60;;;;;;5093204;28;20198;-77
2021/04/21 06:48:28;;;;;;;49.15;44.72;;;10.30;74.50;;;;;;5095613;28;20213;-77
2021/04/21 06:50:55;;;;;;;46.80;42.67;;;10.30;75.10;;;;;;5095488;28;20218;-77
2021/04/21 06:53:29;;;;;;;47.63;43.58;;;10.50;74.30;;;;;;5095395;28;20282;-76
2021/04/21 06:55:56;;;;;;;47.50;43.45;;;10.70;73.80;;;;;;5095005;28;20252;-77
2021/04/21 06:58:25;;;;;;;48.07;43.67;;;10.90;73.00;;;;;;5095173;28;20198;-77
2021/04/21 07:00:52;;;;;;;49.27;45.20;;;11.00;72.70;;;;;;5095259;28;20525;-77
2021/04/21 07:03:19;;;;;;;49.20;45.00;;;11.10;72.60;;;;;;5095323;28;20460;-77
2021/04/21 07:05:47;;;;;;;51.57;46.97;;;11.20;72.40;;;;;;5094744;28;20577;-76
2021/04/21 07:08:15;;;;;;;47.37;43.50;;;11.30;71.90;;;;;;5095310;28;20449;-77
2021/04/21 07:10:45;;;;;;;50.40;46.27;;;11.40;71.50;;;;;;5095287;28;20529;-77
2021/04/21 07:13:15;;;;;;;48.87;44.50;;;11.50;71.50;;;;;;5095009;28;20450;-78
2021/04/21 07:15:43;;;;;;;49.00;44.87;;;11.70;70.80;;;;;;5094358;28;20499;-77
2021/04/21 07:18:15;;;;;;;50.33;45.97;;;11.80;70.30;;;;;;5094975;28;20803;-78
2021/04/21 07:20:42;;;;;;;50.90;46.43;;;12.00;70.30;;;;;;5094366;28;20531;-78
2021/04/21 07:23:10;;;;;;;56.67;51.93;;;12.10;69.50;;;;;;5094958;28;20449;-77
2021/04/21 07:25:38;;;;;;;50.50;45.90;;;12.20;68.60;;;;;;5093921;28;20946;-77
2021/04/21 07:28:06;;;;;;;51.27;46.77;;;12.40;68.00;;;;;;5094800;28;20457;-78
2021/04/21 07:30:33;;;;;;;52.83;48.03;;;12.40;67.80;;;;;;5094648;28;20505;-77
2021/04/21 07:33:01;;;;;;;53.67;48.23;;;12.40;67.80;;;;;;5094784;28;20441;-77
2021/04/21 07:35:30;;;;;;;50.13;45.93;;;12.50;67.40;;;;;;5094211;28;20480;-78
2021/04/21 07:37:57;;;;;;;51.00;46.50;;;12.40;67.80;;;;;;5094500;28;21022;-78
2021/04/21 07:40:30;;;;;;;49.77;45.13;;;12.50;67.50;;;;;;5094448;28;21025;-77
2021/04/21 07:43:10;;;;;;;47.73;43.60;;;12.70;67.20;;;;;;5094557;28;20473;-77
2021/04/21 07:45:58;;;;;;;55.83;49.60;;;12.80;66.80;;;;;;5094077;28;20452;-77
2021/04/21 07:48:46;;;;;;;49.87;44.80;;;12.90;66.70;;;;;;5094175;28;20552;-77
2021/04/21 07:51:43;;;;;;;54.40;49.40;;;13.00;67.20;;;;;;5094323;28;20814;-77
2021/04/21 07:54:21;;;;;;;48.77;44.40;;;13.10;66.10;;;;;;5094244;28;20448;-77
2021/04/21 07:57:10;;;;;;;49.37;45.10;;;13.30;65.90;;;;;;5093541;28;20455;-77
2021/04/21 07:59:40;;;;;;;54.00;49.33;;;13.40;65.40;;;;;;5094605;28;20860;-77
2021/04/21 08:02:18;;;;;;;51.50;46.73;;;13.50;65.20;;;;;;5093889;28;21065;-77
2021/04/21 08:04:50;;;;;;;48.30;44.30;;;13.50;65.10;;;;;;5094165;28;20513;-77
2021/04/21 08:07:41;;;;;;;50.00;45.53;;;13.50;65.00;;;;;;5093553;28;20476;-77
2021/04/21 08:10:20;;;;;;;50.13;45.73;;;13.60;64.90;;;;;;5074212;28;20522;-77
2021/04/21 08:12:47;;;;;;;51.33;46.00;;;13.70;64.50;;;;;;5093746;28;20469;-78
2021/04/21 08:15:15;;;;;;;48.97;44.97;;;13.90;64.30;;;;;;5093918;28;20511;-77
2021/04/21 08:17:56;;;;;;;49.93;45.40;;;14.00;64.10;;;;;;5093173;28;20536;-77
2021/04/21 08:20:26;;;;;;;48.33;43.60;;;14.10;63.60;;;;;;5093113;28;20527;-77
2021/04/21 08:22:55;;;;;;;50.47;45.80;;;14.20;63.20;;;;;;5093742;28;20508;-77
2021/04/21 08:25:21;;;;;;;48.93;44.23;;;14.30;62.50;;;;;;5093354;28;20460;-78
2021/04/21 08:27:47;;;;;;;48.80;44.60;;;14.30;62.30;;;;;;5093361;28;20453;-77
2021/04/21 08:30:16;;;;;;;50.30;46.03;;;14.30;62.60;;;;;;5093325;28;20935;-78
2021/04/21 08:32:42;;;;;;;49.50;44.80;;;14.40;61.70;;;;;;5093646;28;20510;-79
2021/04/21 08:35:10;;;;;;;51.33;47.77;;;14.50;62.20;;;;;;5093416;28;20449;-78
2021/04/21 08:37:37;;;;;;;54.17;48.47;;;14.50;62.30;;;;;;5093076;28;20827;-77
2021/04/21 08:40:04;;;;;;;49.10;44.53;;;14.50;62.70;;;;;;5093080;28;20484;-77
2021/04/21 08:42:31;;;;;;;47.60;43.20;;;14.70;62.20;;;;;;5093094;28;20485;-77
2021/04/21 08:44:58;;;;;;;48.97;44.70;;;14.80;61.90;;;;;;5093159;28;20527;-76
2021/04/21 08:47:26;;;;;;;48.17;44.37;;;14.90;61.70;;;;;;5092592;28;20539;-77
2021/04/21 08:49:55;;;;;;;48.00;43.87;;;15.00;60.60;;;;;;5093150;28;20544;-77
2021/04/21 08:52:23;;;;;;;47.47;43.67;;;15.00;59.90;;;;;;5093074;28;20441;-77
2021/04/21 08:54:54;;;;;;;47.70;43.90;;;14.90;60.00;;;;;;5093009;28;20510;-77
2021/04/21 08:57:21;;;;;;;44.93;41.40;;;14.90;60.10;;;;;;5092707;28;20456;-77
2021/04/21 08:59:48;;;;;;;47.87;44.10;;;15.10;59.50;;;;;;5093023;28;20499;-77
2021/04/21 09:02:15;;;;;;;49.17;45.27;;;15.10;59.40;;;;;;5093401;28;20484;-77
2021/04/21 09:04:43;;;;;;;45.80;41.73;;;15.30;59.50;;;;;;5093195;28;20494;-77
2021/04/21 09:07:11;;;;;;;46.67;42.83;;;15.40;59.60;;;;;;5092645;28;20481;-77
2021/04/21 09:09:37;;;;;;;49.13;45.00;;;15.50;59.60;;;;;;5092168;28;20485;-77
2021/04/21 09:12:06;;;;;;;46.13;42.33;;;15.50;59.60;;;;;;5092827;28;20541;-77
2021/04/21 09:14:33;;;;;;;46.97;43.20;;;15.60;58.90;;;;;;5092747;28;20544;-77
2021/04/21 09:17:00;;;;;;;47.80;43.53;;;15.70;58.40;;;;;;5092177;28;20449;-77
2021/04/21 09:19:27;;;;;;;46.10;42.13;;;15.80;57.90;;;;;;5092246;28;20939;-77
2021/04/21 09:22:05;;;;;;;46.77;42.90;;;15.80;57.30;;;;;;5092669;28;20572;-77
2021/04/21 09:24:34;;;;;;;46.07;41.90;;;15.80;57.00;;;;;;5092425;28;20514;-77
2021/04/21 09:27:23;;;;;;;42.73;39.40;;;15.80;56.60;;;;;;5092210;28;20453;-77
2021/04/21 09:29:50;;;;;;;44.93;40.87;;;15.80;56.40;;;;;;5092636;28;20536;-78
2021/04/21 09:32:18;;;;;;;43.93;40.43;;;15.90;55.60;;;;;;5092502;28;20861;-78
2021/04/21 09:34:55;;;;;;;43.40;39.43;;;15.80;53.90;;;;;;5092246;28;20993;-78
2021/04/21 09:37:25;;;;;;;42.57;39.37;;;15.80;53.80;;;;;;5091956;28;20457;-77
2021/04/21 09:39:52;;;;;;;40.97;37.70;;;15.90;52.60;;;;;;5092779;28;20476;-77
2021/04/21 09:42:26;;;;;;;40.40;37.10;;;15.90;52.60;;;;;;5092740;28;20989;-77
2021/04/21 09:44:53;;;;;;;40.37;36.97;;;16.10;51.80;;;;;;5092311;28;20513;-78
2021/04/21 09:47:20;;;;;;;41.33;38.10;;;16.30;51.30;;;;;;5091857;28;20461;-78
2021/04/21 09:49:47;;;;;;;42.67;39.60;;;16.40;50.60;;;;;;5091978;28;20966;-77
2021/04/21 09:52:30;;;;;;;39.57;36.60;;;16.50;50.30;;;;;;5092317;28;20484;-77
2021/04/21 09:54:58;;;;;;;40.97;38.03;;;16.50;50.90;;;;;;5092156;28;21052;-77
2021/04/21 09:57:27;;;;;;;40.53;37.63;;;16.60;50.30;;;;;;5091500;28;20975;-77
2021/04/21 09:59:56;;;;;;;40.50;37.50;;;16.60;50.70;;;;;;5091911;28;20975;-77
2021/04/21 10:02:34;;;;;;;40.27;37.27;;;16.70;50.40;;;;;;5092097;28;20500;-78
2021/04/21 10:05:26;;;;;;;38.80;35.90;;;16.80;50.10;;;;;;5091932;28;20536;-77
2021/04/21 10:08:14;;;;;;;39.67;36.77;;;16.90;50.00;;;;;;5092213;28;20868;-78
2021/04/21 10:10:41;;;;;;;39.20;36.30;;;16.80;50.10;;;;;;5092372;28;20480;-77
2021/04/21 10:13:15;;;;;;;38.07;35.27;;;16.90;49.80;;;;;;5091926;28;20541;-77
2021/04/21 10:15:42;;;;;;;38.13;34.70;;;17.20;48.50;;;;;;5091688;28;20445;-77
2021/04/21 10:18:10;;;;;;;37.30;34.73;;;17.30;47.90;;;;;;5092794;28;20478;-77
2021/04/21 10:20:36;;;;;;;37.13;34.37;;;17.30;47.80;;;;;;5102290;28;20509;-77
2021/04/21 10:23:04;;;;;;;38.70;35.67;;;17.10;47.50;;;;;;5105609;28;20480;-77
2021/04/21 10:25:32;;;;;;;38.17;35.27;;;17.20;47.70;;;;;;5095680;28;20531;-77
2021/04/21 10:27:59;;;;;;;38.00;35.20;;;17.30;47.50;;;;;;5095976;28;20599;-77
2021/04/21 10:30:26;;;;;;;38.90;35.83;;;17.40;46.50;;;;;;5095943;28;20506;-77
2021/04/21 10:32:53;;;;;;;37.37;34.27;;;17.40;46.90;;;;;;5095778;28;20492;-77
2021/04/21 10:35:20;;;;;;;36.50;33.70;;;17.30;47.00;;;;;;5096495;28;20536;-77
2021/04/21 10:37:47;;;;;;;37.30;34.57;;;17.30;46.00;;;;;;5095293;28;20535;-77
2021/04/21 10:40:23;;;;;;;37.50;34.70;;;17.20;46.50;;;;;;5095593;28;21045;-77
2021/04/21 10:42:52;;;;;;;38.90;35.80;;;17.30;46.80;;;;;;5095699;28;20476;-77
2021/04/21 10:45:21;;;;;;;41.27;38.10;;;17.40;46.80;;;;;;5095504;28;21004;-77
2021/04/21 10:47:50;;;;;;;37.67;34.77;;;17.30;47.00;;;;;;5094995;28;20827;-77
2021/04/21 10:50:35;;;;;;;38.83;35.97;;;17.50;46.20;;;;;;5095665;28;20472;-77
2021/04/21 10:53:02;;;;;;;36.93;34.10;;;17.50;45.80;;;;;;5095724;28;20447;-77
2021/04/21 10:55:40;;;;;;;36.57;33.90;;;17.50;46.10;;;;;;5095008;28;20922;-76
2021/04/21 10:58:10;;;;;;;36.67;34.03;;;17.60;46.00;;;;;;5095423;28;20533;-77
2021/04/21 11:00:38;;;;;;;35.70;33.20;;;17.80;46.00;;;;;;5095280;28;20469;-77
2021/04/21 11:03:10;;;;;;;37.27;34.57;;;17.80;46.30;;;;;;5095382;28;20483;-77
2021/04/21 11:05:45;;;;;;;37.60;35.03;;;17.90;45.50;;;;;;5094641;28;20468;-77
2021/04/21 11:08:14;;;;;;;37.37;34.47;;;18.10;45.50;;;;;;5095162;28;20463;-77
2021/04/21 11:10:47;;;;;;;35.93;33.37;;;18.10;44.30;;;;;;5095034;28;20476;-77
2021/04/21 11:13:16;;;;;;;36.97;34.37;;;18.10;44.00;;;;;;5095345;28;20452;-77
2021/04/21 11:15:44;;;;;;;38.23;35.63;;;18.00;44.70;;;;;;5094758;28;20876;-77
2021/04/21 11:18:25;;;;;;;35.60;33.00;;;18.20;44.60;;;;;;5095148;28;20456;-77
2021/04/21 11:20:56;;;;;;;40.00;37.00;;;18.30;44.50;;;;;;5094686;28;20564;-77
2021/04/21 11:24:00;;;;;;;35.80;33.40;;;18.40;43.90;;;;;;5095097;28;20572;-77
2021/04/21 11:26:38;;;;;;;35.07;32.77;;;18.50;43.50;;;;;;5094384;28;20532;-77
2021/04/21 11:29:13;;;;;;;36.10;33.50;;;18.60;43.30;;;;;;5095613;28;20499;-77
2021/04/21 11:32:15;;;;;;;35.40;32.90;;;18.80;43.20;;;;;;5095648;28;20507;-78
2021/04/21 11:34:42;;;;;;;37.90;35.10;;;19.10;42.80;;;;;;5096958;28;20452;-77
2021/04/21 11:37:14;;;;;;;34.70;32.27;;;19.20;42.00;;;;;;5094797;28;21004;-76
2021/04/21 11:40:08;;;;;;;35.10;32.80;;;19.20;42.00;;;;;;5094551;28;21080;-76
2021/04/21 11:42:45;;;;;;;34.47;31.97;;;19.20;41.40;;;;;;5094587;28;20823;-76
2021/04/21 11:45:24;;;;;;;33.67;31.43;;;19.20;41.70;;;;;;5101054;28;21049;-78
2021/04/21 11:47:52;;;;;;;34.80;32.40;;;19.30;40.20;;;;;;5101570;28;20499;-78
2021/04/21 11:50:33;;;;;;;33.40;31.00;;;19.30;39.40;;;;;;5100011;28;20572;-77
2021/04/21 11:53:02;;;;;;;33.03;30.93;;;19.40;39.40;;;;;;5096336;28;20528;-77
2021/04/21 11:55:39;;;;;;;34.23;31.73;;;19.40;39.50;;;;;;5095015;28;20449;-78
2021/04/21 11:58:09;;;;;;;32.53;30.33;;;19.60;39.50;;;;;;5095389;28;20496;-78
2021/04/21 12:00:41;;;;;;;35.17;32.77;;;19.60;39.80;;;;;;5096814;28;20556;-78
2021/04/21 12:03:14;;;;;;;35.53;33.20;;;19.70;40.00;;;;;;5094269;28;20915;-77
2021/04/21 12:05:41;;;;;;;36.90;34.10;;;20.00;39.60;;;;;;5093529;28;20567;-78
2021/04/21 12:08:09;;;;;;;34.83;32.43;;;19.90;39.60;;;;;;5093961;28;20541;-77
2021/04/21 12:10:37;;;;;;;34.83;32.60;;;20.00;39.00;;;;;;5093933;28;20994;-77
2021/04/21 12:13:21;;;;;;;35.90;33.40;;;20.00;39.00;;;;;;5093822;28;20537;-80
2021/04/21 12:15:50;;;;;;;35.90;33.40;;;20.10;38.20;;;;;;5093344;28;20462;-78
2021/04/21 12:18:38;;;;;;;37.40;34.43;;;20.30;37.90;;;;;;5093789;28;20933;-78
2021/04/21 12:21:21;;;;;;;36.20;33.70;;;20.20;38.00;;;;;;5087270;28;20497;-78
2021/04/21 12:23:48;;;;;;;36.47;33.97;;;20.10;39.10;;;;;;5093631;28;20445;-78
2021/04/21 12:26:19;;;;;;;36.80;34.30;;;19.70;39.40;;;;;;5092896;28;20540;-77
2021/04/21 12:28:48;;;;;;;35.20;32.73;;;19.80;39.70;;;;;;5094341;28;20882;-78
2021/04/21 12:31:16;;;;;;;35.90;33.00;;;19.90;39.60;;;;;;5093618;28;20465;-78
2021/04/21 12:33:43;;;;;;;37.30;34.80;;;20.10;39.40;;;;;;5093502;28;20955;-77
2021/04/21 12:36:10;;;;;;;36.30;33.80;;;20.40;38.90;;;;;;5092857;28;20453;-78
2021/04/21 12:38:38;;;;;;;34.80;32.50;;;20.50;38.40;;;;;;5093628;28;20532;-78
2021/04/21 12:41:16;;;;;;;35.70;33.13;;;20.50;38.40;;;;;;5093258;28;20473;-78
2021/04/21 12:43:43;;;;;;;35.50;33.07;;;20.40;38.70;;;;;;5092904;28;20476;-79
2021/04/21 12:46:21;;;;;;;35.50;32.97;;;20.10;38.40;;;;;;5092563;28;20489;-78
2021/04/21 12:48:50;;;;;;;34.23;31.90;;;19.70;38.40;;;;;;5093170;28;20893;-78
2021/04/21 12:51:23;;;;;;;33.00;30.73;;;19.60;37.50;;;;;;5093177;28;20476;-78
2021/04/21 12:53:50;;;;;;;33.90;31.60;;;19.60;36.80;;;;;;5093087;28;20449;-78
2021/04/21 12:56:16;;;;;;;31.77;29.83;;;19.50;36.60;;;;;;5092556;28;20503;-78
2021/04/21 12:58:46;;;;;;;34.33;32.03;;;19.80;36.20;;;;;;5092886;28;20465;-78
2021/04/21 13:01:15;;;;;;;33.60;31.50;;;20.20;36.20;;;;;;5093168;28;20511;-78